Glenwood Springs, CO (81601)

8:50 AM MDT on October 01, 2014 (GMT -0600)
Oak Meadows | Change Station
CLOSE
Current Station
Personal Weather Station
Location: Glenwood Springs, CO
Elevation: 7000 ft
Nearby Weather Stations

Elev 7000 ft 39.44 °N, 107.32 °W | Updated 13 seconds ago

Rain
Rain
38.4 °F
Feels Like 38 °F
N
0.0
Wind Variable Wind from SE
Gusts 1.0 mph

Today
High -- | Low -- °F
--% Chance of Precip.
Yesterday
High -- | Low -- °F
Precip. -- in
7:05 AM 6:51 PM
Waxing Crescent, 48% visible
Pressure 29.92 in
Visibility 7.0 miles
Clouds Mostly Cloudy 3800 ft
Overcast 4500 ft
Windchill 38 °F
Dew Point 37 °F
Humidity 95%
Rainfall 0.00 in
Snow Depth 1 in , 0 in , 2 in
UV 0 out of 12
Pollen 3.80 out of 12
Air Quality Not available.
Flu Activity Not available.
METAR KRIL 011353Z AUTO 29007KT 7SM -RA BKN038 OVC045 07/04 A2999 RMK AO2 RAB23 SLP130 P0001 T00670044

More Conditions Fewer Conditions

Pressure 29.92 in
Visibility 7.0 miles
Clouds Mostly Cloudy 3800 ft
Overcast 4500 ft
Windchill 38 °F
Dew Point 37 °F
Humidity 95%
Rainfall 0.00 in
Snow Depth 1 in , 0 in , 2 in
UV 0 out of 12
Pollen 3.80 out of 12
Air Quality Not available.
Flu Activity Not available.
METAR KRIL 011353Z AUTO 29007KT 7SM -RA BKN038 OVC045 07/04 A2999 RMK AO2 RAB23 SLP130 P0001 T00670044

More Conditions Fewer Conditions

10-Day Weather Forecast

Almanac

Astronomy

Oct. 01, 2014 Rise Set
Actual Time 7:05 AM MDT 6:51 PM MDT
Civil Twilight 6:38 AM MDT 7:18 PM MDT
Nautical Twilight 6:07 AM MDT 7:49 PM MDT
Astronomical Twilight 5:36 AM MDT 8:21 PM MDT
Moon 2:07 PM MDT No Moon Set
Length of Visible Light 12h 39m
Length of Day
11h 46m
Tomorrow will be 2m 33s shorter.
Waxing Crescent, 48% of the Moon is Illuminated
Today
Waxing Crescent
Oct 1
First Quarter
Oct 8
Full
Oct 15
Last Quarter
Oct 23
New

Today's Extremes

State Highs State Lows

Community

WunderPhotos

Upload Photos

1,757,960 photos uploaded!

Nearby

Snow Depth

Station Depth Elevation
Dry Lake 1 in 8400 ft
Glen Cove 0 in 11460 ft
Mancos 2 in 10000 ft
Copper Mountain 0 in 10500 ft
Elk River 0 in 8700 ft

Earthquake Activity

City Distance Mag. Time & Date
No recent earthquake activity has been reported nearby.
Minimum magnitude displayed is 2.5.

Coastal Water Temperatures

Place Temperature
No Stations Reporting

Nearby Weather Stations